In Rescue
 
Open Full Screen Window  High Contrast Mode
Wind Gusting 00 knots
09
April 02, 2020 10:16 PM CDT
Present Weather: Light Drizzle
Weather Information
Wind Direction
  300 °
Wind Speed
  09 kt (10 mph)
Wind Gust
  00 kt (0 mph)
Altimeter
29.93 in
Visibility
5 SM
Temperature
04° C
39° F
Dewpoint
03° C
37° F
Humidity
93%
1hr Rain Fall
00.00 in.
24hr Rain Fall
00.07 in.
Sky Condition
Missing
MVFR

METAR KMGG 030316Z AUTO 30009KT 5SM -DZ 04/03 A2993 RMK AO2 T00360030

FAA Disclaimer: The data displayed is for advisory purposes only and is not to be used for flight planning or operations.
Missing Cloud Data